sensor_id;sensor_type;location;lat;lon;timestamp;pressure;altitude;pressure_sealevel;temperature;humidity
11190;BME280;5651;50.926;4.718;2023-02-12T00:01:00;103712.19;;;7.33;100.00
11190;BME280;5651;50.926;4.718;2023-02-12T00:03:25;103713.81;;;7.31;100.00
11190;BME280;5651;50.926;4.718;2023-02-12T00:05:51;103708.53;;;7.29;100.00
11190;BME280;5651;50.926;4.718;2023-02-12T00:08:17;103708.44;;;7.28;100.00
11190;BME280;5651;50.926;4.718;2023-02-12T00:10:43;103712.75;;;7.27;100.00
11190;BME280;5651;50.926;4.718;2023-02-12T00:13:10;103713.63;;;7.28;100.00
11190;BME280;5651;50.926;4.718;2023-02-12T00:15:40;103719.63;;;7.27;100.00
11190;BME280;5651;50.926;4.718;2023-02-12T00:18:06;103716.97;;;7.25;100.00
11190;BME280;5651;50.926;4.718;2023-02-12T00:20:32;103709.09;;;7.24;100.00
11190;BME280;5651;50.926;4.718;2023-02-12T00:22:58;103705.59;;;7.23;100.00
11190;BME280;5651;50.926;4.718;2023-02-12T00:25:24;103704.66;;;7.21;100.00
11190;BME280;5651;50.926;4.718;2023-02-12T00:27:50;103708.03;;;7.20;100.00
11190;BME280;5651;50.926;4.718;2023-02-12T00:30:15;103703.72;;;7.21;100.00
11190;BME280;5651;50.926;4.718;2023-02-12T00:32:41;103707.94;;;7.19;100.00
11190;BME280;5651;50.926;4.718;2023-02-12T00:35:07;103713.13;;;7.19;100.00
11190;BME280;5651;50.926;4.718;2023-02-12T00:37:33;103707.06;;;7.18;100.00
11190;BME280;5651;50.926;4.718;2023-02-12T00:39:58;103702.66;;;7.17;100.00
11190;BME280;5651;50.926;4.718;2023-02-12T00:42:24;103703.47;;;7.16;100.00
11190;BME280;5651;50.926;4.718;2023-02-12T00:44:50;103704.28;;;7.15;100.00
11190;BME280;5651;50.926;4.718;2023-02-12T00:47:15;103708.59;;;7.14;100.00
11190;BME280;5651;50.926;4.718;2023-02-12T00:49:41;103703.31;;;7.13;100.00
11190;BME280;5651;50.926;4.718;2023-02-12T00:52:07;103696.22;;;7.10;100.00
11190;BME280;5651;50.926;4.718;2023-02-12T00:54:33;103689.19;;;7.08;100.00
11190;BME280;5651;50.926;4.718;2023-02-12T00:56:59;103704.00;;;7.10;100.00
11190;BME280;5651;50.926;4.718;2023-02-12T00:59:25;103696.97;;;7.08;100.00
11190;BME280;5651;50.926;4.718;2023-02-12T01:01:53;103696.88;;;7.06;100.00
11190;BME280;5651;50.926;4.718;2023-02-12T01:04:20;103696.00;;;7.06;100.00
11190;BME280;5651;50.926;4.718;2023-02-12T01:06:45;103693.31;;;7.04;100.00
11190;BME280;5651;50.926;4.718;2023-02-12T01:09:12;103697.59;;;7.04;100.00
11190;BME280;5651;50.926;4.718;2023-02-12T01:11:38;103697.53;;;7.02;100.00
11190;BME280;5651;50.926;4.718;2023-02-12T01:14:05;103706.91;;;7.00;100.00
11190;BME280;5651;50.926;4.718;2023-02-12T01:16:31;103699.06;;;6.98;100.00
11190;BME280;5651;50.926;4.718;2023-02-12T01:18:58;103705.03;;;6.97;100.00
11190;BME280;5651;50.926;4.718;2023-02-12T01:21:29;103711.84;;;6.95;100.00
11190;BME280;5651;50.926;4.718;2023-02-12T01:23:56;103702.25;;;6.94;100.00
11190;BME280;5651;50.926;4.718;2023-02-12T01:26:23;103704.06;;;6.95;100.00
11190;BME280;5651;50.926;4.718;2023-02-12T01:28:51;103707.78;;;7.01;100.00
11190;BME280;5651;50.926;4.718;2023-02-12T01:31:20;103701.66;;;6.98;100.00
11190;BME280;5651;50.926;4.718;2023-02-12T01:33:48;103702.44;;;6.97;100.00
11190;BME280;5651;50.926;4.718;2023-02-12T01:36:14;103696.34;;;6.97;100.00
11190;BME280;5651;50.926;4.718;2023-02-12T01:38:40;103697.28;;;6.97;100.00
11190;BME280;5651;50.926;4.718;2023-02-12T01:41:11;103698.16;;;6.98;100.00
11190;BME280;5651;50.926;4.718;2023-02-12T01:43:38;103700.81;;;7.00;100.00
11190;BME280;5651;50.926;4.718;2023-02-12T01:46:05;103701.66;;;6.98;100.00
11190;BME280;5651;50.926;4.718;2023-02-12T01:48:49;103699.06;;;6.98;100.00
11190;BME280;5651;50.926;4.718;2023-02-12T01:51:18;103699.06;;;6.98;100.00
11190;BME280;5651;50.926;4.718;2023-02-12T01:53:48;103691.16;;;6.97;100.00
11190;BME280;5651;50.926;4.718;2023-02-12T01:56:15;103699.94;;;6.99;100.00
11190;BME280;5651;50.926;4.718;2023-02-12T01:58:43;103698.06;;;6.96;100.00
11190;BME280;5651;50.926;4.718;2023-02-12T02:01:17;103693.69;;;6.95;100.00
11190;BME280;5651;50.926;4.718;2023-02-12T02:03:49;103693.69;;;6.95;100.00
11190;BME280;5651;50.926;4.718;2023-02-12T02:06:19;103696.28;;;6.95;100.00
11190;BME280;5651;50.926;4.718;2023-02-12T02:08:45;103692.78;;;6.95;100.00
11190;BME280;5651;50.926;4.718;2023-02-12T02:11:12;103688.50;;;6.95;100.00
11190;BME280;5651;50.926;4.718;2023-02-12T02:13:57;103693.69;;;6.95;100.00
11190;BME280;5651;50.926;4.718;2023-02-12T02:16:46;103688.31;;;6.92;100.00
11190;BME280;5651;50.926;4.718;2023-02-12T02:22:22;103687.44;;;6.92;100.00
11190;BME280;5651;50.926;4.718;2023-02-12T02:27:43;103687.25;;;6.89;100.00
11190;BME280;5651;50.926;4.718;2023-02-12T02:32:44;103681.19;;;6.88;100.00
11190;BME280;5651;50.926;4.718;2023-02-12T02:38:40;103678.50;;;6.87;100.00
11190;BME280;5651;50.926;4.718;2023-02-12T02:41:18;103683.50;;;6.84;100.00
11190;BME280;5651;50.926;4.718;2023-02-12T02:43:50;103674.75;;;6.81;100.00
11190;BME280;5651;50.926;4.718;2023-02-12T02:46:22;103677.25;;;6.80;100.00
11190;BME280;5651;50.926;4.718;2023-02-12T02:48:58;103684.03;;;6.78;100.00
11190;BME280;5651;50.926;4.718;2023-02-12T02:51:38;103679.66;;;6.77;100.00
11190;BME280;5651;50.926;4.718;2023-02-12T02:56:34;103682.09;;;6.74;100.00
11190;BME280;5651;50.926;4.718;2023-02-12T02:59:14;103687.28;;;6.74;100.00
11190;BME280;5651;50.926;4.718;2023-02-12T03:01:50;103674.22;;;6.72;100.00
11190;BME280;5651;50.926;4.718;2023-02-12T03:04:21;103678.59;;;6.73;100.00
11190;BME280;5651;50.926;4.718;2023-02-12T03:06:53;103678.59;;;6.73;100.00
11190;BME280;5651;50.926;4.718;2023-02-12T03:12:31;103677.72;;;6.73;100.00
11190;BME280;5651;50.926;4.718;2023-02-12T03:15:07;103679.41;;;6.72;100.00
11190;BME280;5651;50.926;4.718;2023-02-12T03:17:37;103681.91;;;6.71;100.00
11190;BME280;5651;50.926;4.718;2023-02-12T03:20:11;103676.72;;;6.71;100.00
11190;BME280;5651;50.926;4.718;2023-02-12T03:22:43;103672.34;;;6.70;100.00
11190;BME280;5651;50.926;4.718;2023-02-12T03:25:17;103679.31;;;6.71;100.00
11190;BME280;5651;50.926;4.718;2023-02-12T03:28:01;103673.16;;;6.69;100.00
11190;BME280;5651;50.926;4.718;2023-02-12T03:42:03;103669.59;;;6.66;100.00
11190;BME280;5651;50.926;4.718;2023-02-12T03:47:34;103675.50;;;6.64;100.00
11190;BME280;5651;50.926;4.718;2023-02-12T03:50:26;103672.91;;;6.64;100.00
11190;BME280;5651;50.926;4.718;2023-02-12T03:52:49;103669.41;;;6.63;100.00
11190;BME280;5651;50.926;4.718;2023-02-12T03:55:15;103671.19;;;6.64;100.00
11190;BME280;5651;50.926;4.718;2023-02-12T03:57:53;103670.22;;;6.62;100.00
11190;BME280;5651;50.926;4.718;2023-02-12T04:00:24;103672.00;;;6.63;100.00
11190;BME280;5651;50.926;4.718;2023-02-12T04:02:51;103664.16;;;6.62;100.00
11190;BME280;5651;50.926;4.718;2023-02-12T04:05:23;103662.34;;;6.61;100.00
11190;BME280;5651;50.926;4.718;2023-02-12T04:07:50;103669.25;;;6.60;100.00
11190;BME280;5651;50.926;4.718;2023-02-12T04:10:17;103668.25;;;6.58;100.00
11190;BME280;5651;50.926;4.718;2023-02-12T04:12:57;103673.72;;;6.63;100.00
11190;BME280;5651;50.926;4.718;2023-02-12T04:18:14;103669.25;;;6.60;100.00
11190;BME280;5651;50.926;4.718;2023-02-12T04:23:57;103676.09;;;6.60;100.00
11190;BME280;5651;50.926;4.718;2023-02-12T04:26:35;103685.22;;;6.68;100.00
11190;BME280;5651;50.926;4.718;2023-02-12T04:31:45;103680.56;;;6.62;100.00
11190;BME280;5651;50.926;4.718;2023-02-12T04:34:34;103680.50;;;6.61;100.00
11190;BME280;5651;50.926;4.718;2023-02-12T04:37:14;103688.25;;;6.61;100.00
11190;BME280;5651;50.926;4.718;2023-02-12T04:39:43;103687.38;;;6.60;100.00
11190;BME280;5651;50.926;4.718;2023-02-12T04:42:10;103692.44;;;6.59;100.00
11190;BME280;5651;50.926;4.718;2023-02-12T04:44:38;103693.38;;;6.59;100.00
11190;BME280;5651;50.926;4.718;2023-02-12T04:47:04;103700.50;;;6.63;100.00
11190;BME280;5651;50.926;4.718;2023-02-12T04:49:30;103704.88;;;6.64;100.00
11190;BME280;5651;50.926;4.718;2023-02-12T04:51:56;103699.69;;;6.64;100.00
11190;BME280;5651;50.926;4.718;2023-02-12T04:54:22;103700.50;;;6.63;100.00
11190;BME280;5651;50.926;4.718;2023-02-12T04:56:49;103699.50;;;6.61;100.00
11190;BME280;5651;50.926;4.718;2023-02-12T04:59:15;103700.34;;;6.60;100.00
11190;BME280;5651;50.926;4.718;2023-02-12T05:01:41;103693.38;;;6.59;100.00
11190;BME280;5651;50.926;4.718;2023-02-12T05:04:10;103690.84;;;6.61;100.00
11190;BME280;5651;50.926;4.718;2023-02-12T05:06:38;103691.66;;;6.60;100.00
11190;BME280;5651;50.926;4.718;2023-02-12T05:09:05;103693.38;;;6.59;100.00
11190;BME280;5651;50.926;4.718;2023-02-12T05:11:31;103691.56;;;6.58;100.00
11190;BME280;5651;50.926;4.718;2023-02-12T05:13:58;103697.63;;;6.59;100.00
11190;BME280;5651;50.926;4.718;2023-02-12T05:16:24;103691.56;;;6.58;100.00
11190;BME280;5651;50.926;4.718;2023-02-12T05:18:50;103696.75;;;6.58;100.00
11190;BME280;5651;50.926;4.718;2023-02-12T05:21:16;103695.69;;;6.55;100.00
11190;BME280;5651;50.926;4.718;2023-02-12T05:23:42;103696.47;;;6.54;100.00
11190;BME280;5651;50.926;4.718;2023-02-12T05:26:15;103692.03;;;6.51;100.00
11190;BME280;5651;50.926;4.718;2023-02-12T05:28:41;103697.19;;;6.51;100.00
11190;BME280;5651;50.926;4.718;2023-02-12T05:31:09;103692.03;;;6.51;100.00
11190;BME280;5651;50.926;4.718;2023-02-12T05:33:35;103691.81;;;6.48;100.00
11190;BME280;5651;50.926;4.718;2023-02-12T05:36:06;103692.63;;;6.47;100.00
11190;BME280;5651;50.926;4.718;2023-02-12T05:38:32;103698.72;;;6.47;100.00
11190;BME280;5651;50.926;4.718;2023-02-12T05:41:07;103698.59;;;6.46;100.00
11190;BME280;5651;50.926;4.718;2023-02-12T05:43:34;103694.25;;;6.45;100.00
11190;BME280;5651;50.926;4.718;2023-02-12T05:46:01;103695.94;;;6.44;100.00
11190;BME280;5651;50.926;4.718;2023-02-12T05:48:28;103689.88;;;6.44;100.00
11190;BME280;5651;50.926;4.718;2023-02-12T05:53:29;103695.06;;;6.44;100.00
11190;BME280;5651;50.926;4.718;2023-02-12T05:55:54;103695.84;;;6.43;100.00
11190;BME280;5651;50.926;4.718;2023-02-12T05:58:29;103698.38;;;6.41;100.00
11190;BME280;5651;50.926;4.718;2023-02-12T06:00:55;103694.88;;;6.41;100.00
11190;BME280;5651;50.926;4.718;2023-02-12T06:03:20;103700.03;;;6.41;100.00
11190;BME280;5651;50.926;4.718;2023-02-12T06:05:50;103695.78;;;6.41;100.00
11190;BME280;5651;50.926;4.718;2023-02-12T06:08:16;103695.78;;;6.41;100.00
11190;BME280;5651;50.926;4.718;2023-02-12T06:10:41;103696.56;;;6.40;100.00
11190;BME280;5651;50.926;4.718;2023-02-12T06:13:07;103701.75;;;6.40;100.00
11190;BME280;5651;50.926;4.718;2023-02-12T06:15:35;103704.22;;;6.39;100.00
11190;BME280;5651;50.926;4.718;2023-02-12T06:18:01;103699.88;;;6.38;100.00
11190;BME280;5651;50.926;4.718;2023-02-12T06:20:27;103700.03;;;6.41;100.00
11190;BME280;5651;50.926;4.718;2023-02-12T06:22:53;103713.00;;;6.41;100.00
11190;BME280;5651;50.926;4.718;2023-02-12T06:25:19;103702.63;;;6.41;100.00
11190;BME280;5651;50.926;4.718;2023-02-12T06:27:45;103709.41;;;6.39;100.00
11190;BME280;5651;50.926;4.718;2023-02-12T06:30:11;103707.72;;;6.39;100.00
11190;BME280;5651;50.926;4.718;2023-02-12T06:32:36;103706.94;;;6.40;100.00
11190;BME280;5651;50.926;4.718;2023-02-12T06:35:02;103711.19;;;6.40;100.00
11190;BME280;5651;50.926;4.718;2023-02-12T06:37:28;103712.91;;;6.39;100.00
11190;BME280;5651;50.926;4.718;2023-02-12T06:39:54;103712.91;;;6.39;100.00
11190;BME280;5651;50.926;4.718;2023-02-12T06:42:20;103715.41;;;6.38;100.00
11190;BME280;5651;50.926;4.718;2023-02-12T06:44:45;103709.41;;;6.39;100.00
11190;BME280;5651;50.926;4.718;2023-02-12T06:47:12;103713.50;;;6.35;100.00
11190;BME280;5651;50.926;4.718;2023-02-12T06:49:38;103719.59;;;6.36;100.00
11190;BME280;5651;50.926;4.718;2023-02-12T06:52:04;103721.41;;;6.37;100.00
11190;BME280;5651;50.926;4.718;2023-02-12T06:54:29;103724.88;;;6.37;100.00
11190;BME280;5651;50.926;4.718;2023-02-12T06:56:55;103729.16;;;6.37;100.00
11190;BME280;5651;50.926;4.718;2023-02-12T06:59:21;103729.06;;;6.35;100.00
11190;BME280;5651;50.926;4.718;2023-02-12T07:01:47;103738.63;;;6.36;100.00
11190;BME280;5651;50.926;4.718;2023-02-12T07:04:13;103742.13;;;6.37;100.00
11190;BME280;5651;50.926;4.718;2023-02-12T07:06:39;103740.41;;;6.37;100.00
11190;BME280;5651;50.926;4.718;2023-02-12T07:09:04;103744.78;;;6.38;100.00
11190;BME280;5651;50.926;4.718;2023-02-12T07:11:32;103749.97;;;6.38;100.00
11190;BME280;5651;50.926;4.718;2023-02-12T07:13:58;103749.09;;;6.38;100.00
11190;BME280;5651;50.926;4.718;2023-02-12T07:16:25;103749.97;;;6.38;100.00
11190;BME280;5651;50.926;4.718;2023-02-12T07:18:51;103750.84;;;6.39;100.00
11190;BME280;5651;50.926;4.718;2023-02-12T07:21:17;103751.75;;;6.39;100.00
11190;BME280;5651;50.926;4.718;2023-02-12T07:23:50;103753.56;;;6.40;100.00
11190;BME280;5651;50.926;4.718;2023-02-12T07:26:16;103756.31;;;6.43;100.00
11190;BME280;5651;50.926;4.718;2023-02-12T07:28:43;103751.03;;;6.42;100.00
11190;BME280;5651;50.926;4.718;2023-02-12T07:31:19;103754.63;;;6.44;100.00
11190;BME280;5651;50.926;4.718;2023-02-12T07:33:46;103758.09;;;6.44;100.00
11190;BME280;5651;50.926;4.718;2023-02-12T07:36:16;103753.84;;;6.45;100.00
11190;BME280;5651;50.926;4.718;2023-02-12T07:38:42;103755.50;;;6.44;100.00
11190;BME280;5651;50.926;4.718;2023-02-12T07:41:17;103752.31;;;6.48;100.00
11190;BME280;5651;50.926;4.718;2023-02-12T07:43:44;103760.25;;;6.52;100.00
11190;BME280;5651;50.926;4.718;2023-02-12T07:46:13;103757.59;;;6.50;100.00
11190;BME280;5651;50.926;4.718;2023-02-12T07:48:42;103762.69;;;6.48;100.00
11190;BME280;5651;50.926;4.718;2023-02-12T07:51:10;103765.28;;;6.48;100.00
11190;BME280;5651;50.926;4.718;2023-02-12T07:53:37;103763.56;;;6.49;100.00
11190;BME280;5651;50.926;4.718;2023-02-12T07:56:17;103754.09;;;6.49;100.00
11190;BME280;5651;50.926;4.718;2023-02-12T07:58:44;103753.41;;;6.52;100.00
11190;BME280;5651;50.926;4.718;2023-02-12T08:03:42;103769.91;;;6.54;100.00
11190;BME280;5651;50.926;4.718;2023-02-12T08:06:18;103765.72;;;6.56;100.00
11190;BME280;5651;50.926;4.718;2023-02-12T08:08:45;103762.31;;;6.57;100.00
11190;BME280;5651;50.926;4.718;2023-02-12T08:11:12;103769.28;;;6.58;100.00
11190;BME280;5651;50.926;4.718;2023-02-12T08:13:38;103773.69;;;6.59;100.00
11190;BME280;5651;50.926;4.718;2023-02-12T08:16:09;103766.06;;;6.62;100.00
11190;BME280;5651;50.926;4.718;2023-02-12T08:18:35;103760.00;;;6.62;100.00
11190;BME280;5651;50.926;4.718;2023-02-12T08:21:08;103765.34;;;6.65;100.00
11190;BME280;5651;50.926;4.718;2023-02-12T08:23:34;103755.00;;;6.65;100.00
11190;BME280;5651;50.926;4.718;2023-02-12T08:26:07;103765.47;;;6.66;100.00
11190;BME280;5651;50.926;4.718;2023-02-12T08:28:34;103766.44;;;6.69;100.00
11190;BME280;5651;50.926;4.718;2023-02-12T08:31:02;103767.34;;;6.69;100.00
11190;BME280;5651;50.926;4.718;2023-02-12T08:33:28;103770.00;;;6.71;100.00
11190;BME280;5651;50.926;4.718;2023-02-12T08:36:05;103764.13;;;6.73;100.00
11190;BME280;5651;50.926;4.718;2023-02-12T08:38:32;103763.44;;;6.76;100.00
11190;BME280;5651;50.926;4.718;2023-02-12T08:41:03;103767.78;;;6.77;100.00
11190;BME280;5651;50.926;4.718;2023-02-12T08:43:29;103770.56;;;6.80;100.00
11190;BME280;5651;50.926;4.718;2023-02-12T08:46:03;103769.84;;;6.82;100.00
11190;BME280;5651;50.926;4.718;2023-02-12T08:48:30;103770.84;;;6.85;100.00
11190;BME280;5651;50.926;4.718;2023-02-12T08:51:03;103773.59;;;6.88;100.00
11190;BME280;5651;50.926;4.718;2023-02-12T08:53:29;103775.38;;;6.89;100.00
11190;BME280;5651;50.926;4.718;2023-02-12T08:55:54;103774.66;;;6.91;100.00
11190;BME280;5651;50.926;4.718;2023-02-12T08:58:20;103778.25;;;6.93;100.00
11190;BME280;5651;50.926;4.718;2023-02-12T09:00:46;103780.13;;;6.96;100.00
11190;BME280;5651;50.926;4.718;2023-02-12T09:03:12;103779.41;;;6.98;100.00
11190;BME280;5651;50.926;4.718;2023-02-12T09:05:39;103783.78;;;7.00;100.00
11190;BME280;5651;50.926;4.718;2023-02-12T09:08:05;103779.66;;;7.03;100.00
11190;BME280;5651;50.926;4.718;2023-02-12T09:10:31;103775.53;;;7.07;100.00
11190;BME280;5651;50.926;4.718;2023-02-12T09:12:57;103777.53;;;7.11;100.00
11190;BME280;5651;50.926;4.718;2023-02-12T09:15:22;103781.28;;;7.16;100.00
11190;BME280;5651;50.926;4.718;2023-02-12T09:17:48;103778.88;;;7.19;100.00
11190;BME280;5651;50.926;4.718;2023-02-12T09:20:14;103782.59;;;7.24;100.00
11190;BME280;5651;50.926;4.718;2023-02-12T09:22:40;103782.00;;;7.28;100.00
11190;BME280;5651;50.926;4.718;2023-02-12T09:25:06;103782.16;;;7.32;100.00
11190;BME280;5651;50.926;4.718;2023-02-12T09:27:32;103782.31;;;7.35;100.00
11190;BME280;5651;50.926;4.718;2023-02-12T09:29:57;103787.66;;;7.38;100.00
11190;BME280;5651;50.926;4.718;2023-02-12T09:32:23;103783.47;;;7.40;100.00
11190;BME280;5651;50.926;4.718;2023-02-12T09:34:49;103781.06;;;7.43;100.00
11190;BME280;5651;50.926;4.718;2023-02-12T09:37:14;103777.81;;;7.47;100.00
11190;BME280;5651;50.926;4.718;2023-02-12T09:39:40;103776.38;;;7.52;100.00
11190;BME280;5651;50.926;4.718;2023-02-12T09:44:51;103781.19;;;7.61;100.00
11190;BME280;5651;50.926;4.718;2023-02-12T09:47:44;103784.94;;;7.66;100.00
11190;BME280;5651;50.926;4.718;2023-02-12T09:50:28;103781.78;;;7.72;100.00
11190;BME280;5651;50.926;4.718;2023-02-12T09:52:57;103785.44;;;7.75;100.00
11190;BME280;5651;50.926;4.718;2023-02-12T09:55:30;103783.72;;;7.76;100.00
11190;BME280;5651;50.926;4.718;2023-02-12T09:58:00;103789.81;;;7.76;100.00
11190;BME280;5651;50.926;4.718;2023-02-12T10:00:28;103795.28;;;7.81;100.00
11190;BME280;5651;50.926;4.718;2023-02-12T10:02:59;103800.53;;;7.83;100.00
11190;BME280;5651;50.926;4.718;2023-02-12T10:05:37;103800.69;;;7.86;100.00
11190;BME280;5651;50.926;4.718;2023-02-12T10:27:14;103794.00;;;8.06;100.00
11190;BME280;5651;50.926;4.718;2023-02-12T10:29:42;103795.63;;;8.04;100.00
11190;BME280;5651;50.926;4.718;2023-02-12T10:32:23;103794.16;;;8.09;100.00
11190;BME280;5651;50.926;4.718;2023-02-12T10:34:50;103790.84;;;8.12;100.00
11190;BME280;5651;50.926;4.718;2023-02-12T10:37:29;103798.06;;;8.17;100.00
11190;BME280;5651;50.926;4.718;2023-02-12T10:40:05;103786.22;;;8.22;100.00
11190;BME280;5651;50.926;4.718;2023-02-12T10:42:42;103789.06;;;8.27;100.00
11190;BME280;5651;50.926;4.718;2023-02-12T10:45:19;103781.66;;;8.35;100.00
11190;BME280;5651;50.926;4.718;2023-02-12T10:47:45;103782.63;;;8.37;100.00
11190;BME280;5651;50.926;4.718;2023-02-12T10:53:36;103788.13;;;8.43;100.00
11190;BME280;5651;50.926;4.718;2023-02-12T11:01:22;103793.50;;;8.46;100.00
11190;BME280;5651;50.926;4.718;2023-02-12T11:03:51;103793.72;;;8.49;100.00
11190;BME280;5651;50.926;4.718;2023-02-12T11:06:23;103790.13;;;8.47;100.00
11190;BME280;5651;50.926;4.718;2023-02-12T11:08:50;103783.94;;;8.45;100.00
11190;BME280;5651;50.926;4.718;2023-02-12T11:11:27;103786.38;;;8.42;100.00
11190;BME280;5651;50.926;4.718;2023-02-12T11:16:57;103781.81;;;8.38;100.00
11190;BME280;5651;50.926;4.718;2023-02-12T11:19:27;103774.63;;;8.49;100.00
11190;BME280;5651;50.926;4.718;2023-02-12T11:22:06;103780.22;;;8.56;100.00
11190;BME280;5651;50.926;4.718;2023-02-12T11:24:34;103773.13;;;8.54;100.00
11190;BME280;5651;50.926;4.718;2023-02-12T11:27:23;103773.00;;;8.51;100.00
11190;BME280;5651;50.926;4.718;2023-02-12T11:30:18;103769.88;;;8.41;100.00
11190;BME280;5651;50.926;4.718;2023-02-12T11:32:45;103773.28;;;8.40;100.00
11190;BME280;5651;50.926;4.718;2023-02-12T11:35:20;103768.75;;;8.36;100.00
11190;BME280;5651;50.926;4.718;2023-02-12T11:37:56;103768.59;;;8.50;100.00
11190;BME280;5651;50.926;4.718;2023-02-12T11:40:27;103768.28;;;8.60;100.00
11190;BME280;5651;50.926;4.718;2023-02-12T11:43:03;103756.91;;;8.58;100.00
11190;BME280;5651;50.926;4.718;2023-02-12T11:45:42;103752.19;;;8.67;100.00
11190;BME280;5651;50.926;4.718;2023-02-12T11:48:26;103761.03;;;8.71;100.00
11190;BME280;5651;50.926;4.718;2023-02-12T11:50:55;103748.91;;;8.71;100.00
11190;BME280;5651;50.926;4.718;2023-02-12T11:53:33;103749.88;;;8.74;100.00
11190;BME280;5651;50.926;4.718;2023-02-12T11:56:03;103746.19;;;8.86;100.00
11190;BME280;5651;50.926;4.718;2023-02-12T11:58:29;103743.88;;;8.93;100.00
11190;BME280;5651;50.926;4.718;2023-02-12T12:01:04;103744.19;;;8.99;100.00
11190;BME280;5651;50.926;4.718;2023-02-12T12:03:54;103746.63;;;8.96;100.00
11190;BME280;5651;50.926;4.718;2023-02-12T12:06:28;103738.97;;;8.99;100.00
11190;BME280;5651;50.926;4.718;2023-02-12T12:11:37;103733.44;;;9.09;100.00
11190;BME280;5651;50.926;4.718;2023-02-12T12:14:41;103721.47;;;9.13;100.00
11190;BME280;5651;50.926;4.718;2023-02-12T12:17:39;103720.13;;;9.21;100.00
11190;BME280;5651;50.926;4.718;2023-02-12T12:20:28;103725.75;;;9.30;100.00
11190;BME280;5651;50.926;4.718;2023-02-12T12:26:05;103716.75;;;9.42;100.00
11190;BME280;5651;50.926;4.718;2023-02-12T12:28:53;103708.50;;;9.32;100.00
11190;BME280;5651;50.926;4.718;2023-02-12T12:31:36;103714.66;;;9.34;100.00
11190;BME280;5651;50.926;4.718;2023-02-12T12:34:09;103703.28;;;9.32;100.00
11190;BME280;5651;50.926;4.718;2023-02-12T12:37:04;103710.81;;;9.26;100.00
11190;BME280;5651;50.926;4.718;2023-02-12T12:48:21;103699.94;;;9.35;100.00
11190;BME280;5651;50.926;4.718;2023-02-12T12:51:00;103700.75;;;9.34;100.00
11190;BME280;5651;50.926;4.718;2023-02-12T12:56:28;103697.34;;;9.35;100.00
11190;BME280;5651;50.926;4.718;2023-02-12T13:02:08;103697.34;;;9.35;100.00
11190;BME280;5651;50.926;4.718;2023-02-12T13:05:01;103690.50;;;9.37;100.00
11190;BME280;5651;50.926;4.718;2023-02-12T13:10:09;103679.56;;;9.44;100.00
11190;BME280;5651;50.926;4.718;2023-02-12T13:18:11;103670.94;;;9.45;99.28
11190;BME280;5651;50.926;4.718;2023-02-12T13:20:54;103670.50;;;9.36;98.83
11190;BME280;5651;50.926;4.718;2023-02-12T13:23:35;103660.91;;;9.35;98.79
11190;BME280;5651;50.926;4.718;2023-02-12T13:28:54;103649.81;;;9.39;98.86
11190;BME280;5651;50.926;4.718;2023-02-12T13:31:23;103654.41;;;9.45;98.93
11190;BME280;5651;50.926;4.718;2023-02-12T13:33:56;103649.28;;;9.46;98.85
11190;BME280;5651;50.926;4.718;2023-02-12T13:36:24;103651.34;;;9.54;99.78
11190;BME280;5651;50.926;4.718;2023-02-12T13:39:00;103644.97;;;9.47;98.50
11190;BME280;5651;50.926;4.718;2023-02-12T13:41:28;103640.50;;;9.44;98.10
11190;BME280;5651;50.926;4.718;2023-02-12T14:00:58;103633.03;;;9.52;98.13
11190;BME280;5651;50.926;4.718;2023-02-12T14:03:25;103630.44;;;9.52;98.66
11190;BME280;5651;50.926;4.718;2023-02-12T14:08:38;103634.50;;;9.45;97.39
11190;BME280;5651;50.926;4.718;2023-02-12T14:11:13;103633.88;;;9.51;97.73
11190;BME280;5651;50.926;4.718;2023-02-12T14:13:56;103625.22;;;9.52;98.03
11190;BME280;5651;50.926;4.718;2023-02-12T14:22:01;103623.03;;;9.42;96.76
11190;BME280;5651;50.926;4.718;2023-02-12T14:30:24;103619.41;;;9.58;98.78
11190;BME280;5651;50.926;4.718;2023-02-12T14:35:33;103606.59;;;9.62;98.79
11190;BME280;5651;50.926;4.718;2023-02-12T14:40:49;103622.16;;;9.61;98.83
11190;BME280;5651;50.926;4.718;2023-02-12T14:43:33;103617.41;;;9.52;98.22
11190;BME280;5651;50.926;4.718;2023-02-12T14:48:52;103617.50;;;9.54;98.77
11190;BME280;5651;50.926;4.718;2023-02-12T14:53:57;103619.75;;;9.46;98.39
11190;BME280;5651;50.926;4.718;2023-02-12T14:56:23;103613.41;;;9.39;97.91
11190;BME280;5651;50.926;4.718;2023-02-12T14:58:52;103614.47;;;9.44;99.11
11190;BME280;5651;50.926;4.718;2023-02-12T15:01:33;103610.78;;;9.39;98.29
11190;BME280;5651;50.926;4.718;2023-02-12T15:04:10;103615.91;;;9.38;98.35
11190;BME280;5651;50.926;4.718;2023-02-12T15:06:48;103613.41;;;9.39;98.81
11190;BME280;5651;50.926;4.718;2023-02-12T15:09:20;103611.06;;;9.45;99.34
11190;BME280;5651;50.926;4.718;2023-02-12T15:12:02;103609.00;;;9.38;98.36
11190;BME280;5651;50.926;4.718;2023-02-12T15:14:34;103602.63;;;9.31;98.42
11190;BME280;5651;50.926;4.718;2023-02-12T15:17:07;103601.75;;;9.31;98.47
11190;BME280;5651;50.926;4.718;2023-02-12T15:20:04;103608.66;;;9.30;98.30
11190;BME280;5651;50.926;4.718;2023-02-12T15:22:38;103600.03;;;9.31;98.24
11190;BME280;5651;50.926;4.718;2023-02-12T15:25:25;103604.34;;;9.31;98.80
11190;BME280;5651;50.926;4.718;2023-02-12T15:30:25;103602.41;;;9.27;98.66
11190;BME280;5651;50.926;4.718;2023-02-12T15:32:54;103603.22;;;9.26;98.49
11190;BME280;5651;50.926;4.718;2023-02-12T15:37:46;103594.22;;;9.17;98.64
11190;BME280;5651;50.926;4.718;2023-02-12T15:40:14;103601.16;;;9.18;98.19
11190;BME280;5651;50.926;4.718;2023-02-12T15:43:00;103595.97;;;9.18;98.58
11190;BME280;5651;50.926;4.718;2023-02-12T15:45:34;103599.75;;;9.25;99.35
11190;BME280;5651;50.926;4.718;2023-02-12T15:48:15;103593.25;;;9.15;98.42
11190;BME280;5651;50.926;4.718;2023-02-12T15:53:37;103586.31;;;9.16;99.00
11190;BME280;5651;50.926;4.718;2023-02-12T15:56:04;103592.13;;;9.10;98.81
11190;BME280;5651;50.926;4.718;2023-02-12T15:58:53;103589.31;;;9.06;98.72
11190;BME280;5651;50.926;4.718;2023-02-12T16:01:25;103587.75;;;9.09;99.01